createdAt,value
2017-11-11T00:00:29.278Z,1006.26
2017-11-11T00:01:09.694Z,1006.25
2017-11-11T00:01:50.132Z,1006.24
2017-11-11T00:02:30.572Z,1006.26
2017-11-11T00:03:10.999Z,1006.23
2017-11-11T00:03:51.380Z,1006.27
2017-11-11T00:04:31.753Z,1006.26
2017-11-11T00:05:12.175Z,1006.3
2017-11-11T00:05:52.595Z,1006.21
2017-11-11T00:06:33.039Z,1006.28
2017-11-11T00:07:13.404Z,1006.25
2017-11-11T00:07:53.812Z,1006.25
2017-11-11T00:08:34.210Z,1006.25
2017-11-11T00:09:14.589Z,1006.24
2017-11-11T00:09:55.018Z,1006.22
2017-11-11T00:10:35.416Z,1006.23
2017-11-11T00:11:15.859Z,1006.25
2017-11-11T00:11:56.169Z,1006.25
2017-11-11T00:12:36.686Z,1006.23
2017-11-11T00:13:17.031Z,1006.24
2017-11-11T00:13:57.470Z,1006.19
2017-11-11T00:14:37.902Z,1006.22
2017-11-11T00:15:18.256Z,1006.19
2017-11-11T00:15:58.695Z,1006.2
2017-11-11T00:16:39.086Z,1006.23
2017-11-11T00:17:19.492Z,1006.26
2017-11-11T00:17:59.977Z,1006.21
2017-11-11T00:18:40.382Z,1006.23
2017-11-11T00:19:20.848Z,1006.27
2017-11-11T00:20:01.215Z,1006.2
2017-11-11T00:20:41.656Z,1006.26
2017-11-11T00:21:22.059Z,1006.24
2017-11-11T00:22:02.514Z,1006.22
2017-11-11T00:22:42.879Z,1006.25
2017-11-11T00:23:23.350Z,1006.27
2017-11-11T00:24:03.718Z,1006.27
2017-11-11T00:24:44.181Z,1006.25
2017-11-11T00:25:24.528Z,1006.27
2017-11-11T00:26:04.941Z,1006.28
2017-11-11T00:26:45.401Z,1006.21
2017-11-11T00:27:25.749Z,1006.24
2017-11-11T00:28:06.129Z,1006.24
2017-11-11T00:28:46.542Z,1006.26
2017-11-11T00:29:26.993Z,1006.22
2017-11-11T00:30:07.384Z,1006.23
2017-11-11T00:30:47.802Z,1006.25
2017-11-11T00:31:28.231Z,1006.25
2017-11-11T00:32:08.728Z,1006.27
2017-11-11T00:32:49.159Z,1006.26
2017-11-11T00:33:29.559Z,1006.24
2017-11-11T00:34:09.920Z,1006.22
2017-11-11T00:34:50.346Z,1006.24
2017-11-11T00:35:30.722Z,1006.25
2017-11-11T00:36:11.131Z,1006.17
2017-11-11T00:36:51.578Z,1006.19
2017-11-11T00:37:31.911Z,1006.14
2017-11-11T00:38:12.304Z,1006.13
2017-11-11T00:38:52.729Z,1006.14
2017-11-11T00:39:33.190Z,1006.18
2017-11-11T00:40:13.558Z,1006.17
2017-11-11T00:40:53.900Z,1006.16
2017-11-11T00:41:34.307Z,1006.16
2017-11-11T00:42:14.707Z,1006.12
2017-11-11T00:42:55.123Z,1006.12
2017-11-11T00:43:35.512Z,1006.14
2017-11-11T00:44:15.906Z,1006.2
2017-11-11T00:44:56.265Z,1006.15
2017-11-11T00:45:36.731Z,1006.13
2017-11-11T00:46:17.162Z,1006.15
2017-11-11T00:46:57.525Z,1006.13
2017-11-11T00:47:37.873Z,1006.15
2017-11-11T00:48:18.285Z,1006.17
2017-11-11T00:48:58.655Z,1006.15
2017-11-11T00:49:39.083Z,1006.16
2017-11-11T00:50:19.603Z,1006.18
2017-11-11T00:50:59.918Z,1006.12
2017-11-11T00:51:40.291Z,1006.11
2017-11-11T00:52:20.734Z,1006.11
2017-11-11T00:53:01.102Z,1006.06
2017-11-11T00:53:41.535Z,1006.08
2017-11-11T00:54:21.979Z,1006.07
2017-11-11T00:55:02.388Z,1006.11
2017-11-11T00:55:42.851Z,1006.1
2017-11-11T00:56:23.291Z,1006.09
2017-11-11T00:57:03.667Z,1006.14
2017-11-11T00:57:44.098Z,1006.11
2017-11-11T00:58:24.485Z,1006.11
2017-11-11T00:59:04.932Z,1006.11
2017-11-11T00:59:45.301Z,1006.12
2017-11-11T01:00:25.728Z,1006.12
2017-11-11T01:01:06.165Z,1006.08
2017-11-11T01:01:46.659Z,1006.09
2017-11-11T01:02:26.996Z,1006.06
2017-11-11T01:03:07.372Z,1006.08
2017-11-11T01:03:47.805Z,1006.06
2017-11-11T01:04:28.203Z,1006.07
2017-11-11T01:05:08.653Z,1006.05
2017-11-11T01:05:49.040Z,1006.06
2017-11-11T01:06:29.461Z,1006.1
2017-11-11T01:07:09.861Z,1005.98
2017-11-11T01:07:50.269Z,1006.04
2017-11-11T01:08:30.678Z,1006.04
2017-11-11T01:09:11.116Z,1006.01
2017-11-11T01:09:51.533Z,1006.01
2017-11-11T01:10:31.997Z,1006
2017-11-11T01:11:12.380Z,1005.97
2017-11-11T01:11:52.813Z,1005.97
2017-11-11T01:12:33.259Z,1005.96
2017-11-11T01:13:13.718Z,1005.93
2017-11-11T01:13:54.126Z,1005.9
2017-11-11T01:14:34.515Z,1005.92
2017-11-11T01:15:14.927Z,1005.9
2017-11-11T01:15:55.296Z,1005.89
2017-11-11T01:16:35.729Z,1005.83
2017-11-11T01:17:16.187Z,1005.83
2017-11-11T01:17:56.648Z,1005.82
2017-11-11T01:18:37.076Z,1005.83
2017-11-11T01:19:17.493Z,1005.82
2017-11-11T01:19:57.874Z,1005.81
2017-11-11T01:20:38.329Z,1005.81
2017-11-11T01:21:18.705Z,1005.8
2017-11-11T01:21:59.144Z,1005.76
2017-11-11T01:22:39.526Z,1005.85
2017-11-11T01:23:20.012Z,1005.83
2017-11-11T01:24:00.439Z,1005.81
2017-11-11T01:24:40.793Z,1005.79
2017-11-11T01:25:21.226Z,1005.75
2017-11-11T01:26:01.648Z,1005.75
2017-11-11T01:26:42.056Z,1005.78
2017-11-11T01:27:22.507Z,1005.78
2017-11-11T01:28:02.932Z,1005.74
2017-11-11T01:28:43.341Z,1005.74
2017-11-11T01:29:23.727Z,1005.75
2017-11-11T01:30:04.191Z,1005.76
2017-11-11T01:30:44.605Z,1005.73
2017-11-11T01:31:25.037Z,1005.72
2017-11-11T01:32:05.438Z,1005.76
2017-11-11T01:32:45.853Z,1005.76
2017-11-11T01:33:26.228Z,1005.77
2017-11-11T01:34:06.593Z,1005.84
2017-11-11T01:34:47.057Z,1005.78
2017-11-11T01:35:27.504Z,1005.79
2017-11-11T01:36:07.897Z,1005.8
2017-11-11T01:36:48.351Z,1005.78
2017-11-11T01:37:28.748Z,1005.72
2017-11-11T01:38:09.162Z,1005.7
2017-11-11T01:38:49.527Z,1005.67
2017-11-11T01:39:30.004Z,1005.63
2017-11-11T01:40:10.404Z,1005.64
2017-11-11T01:40:50.825Z,1005.63
2017-11-11T01:41:31.221Z,1005.58
2017-11-11T01:42:11.638Z,1005.56
2017-11-11T01:42:52.029Z,1005.53
2017-11-11T01:43:32.441Z,1005.58
2017-11-11T01:44:12.860Z,1005.59
2017-11-11T01:44:53.247Z,1005.6
2017-11-11T01:45:33.673Z,1005.58
2017-11-11T01:46:14.033Z,1005.55
2017-11-11T01:46:54.448Z,1005.62
2017-11-11T01:47:34.952Z,1005.57
2017-11-11T01:48:15.372Z,1005.48
2017-11-11T01:48:55.809Z,1005.54
2017-11-11T01:50:54.412Z,1005.54
2017-11-11T01:51:34.451Z,1005.55
2017-11-11T01:52:14.879Z,1005.52
2017-11-11T01:52:55.281Z,1005.55
2017-11-11T01:53:35.644Z,1005.48
2017-11-11T01:54:16.058Z,1005.49
2017-11-11T01:54:56.562Z,1005.51
2017-11-11T01:55:36.801Z,1005.44
2017-11-11T01:56:17.237Z,1005.47
2017-11-11T01:56:57.645Z,1005.44
2017-11-11T01:57:38.061Z,1005.41
2017-11-11T01:58:18.490Z,1005.45
2017-11-11T02:02:36.355Z,1005.47
2017-11-11T02:04:50.976Z,1005.47
2017-11-11T02:05:31.164Z,1005.44
2017-11-11T02:06:11.536Z,1005.46
2017-11-11T02:06:51.883Z,1005.41
2017-11-11T02:07:32.319Z,1005.42
2017-11-11T02:08:12.757Z,1005.41
2017-11-11T02:08:53.121Z,1005.35
2017-11-11T02:09:33.535Z,1005.31
2017-11-11T02:10:13.955Z,1005.3
2017-11-11T02:10:54.343Z,1005.34
2017-11-11T02:11:34.737Z,1005.33
2017-11-11T02:12:15.144Z,1005.4
2017-11-11T02:12:55.611Z,1005.42
2017-11-11T02:13:35.999Z,1005.38
2017-11-11T02:14:16.368Z,1005.4
2017-11-11T02:14:56.796Z,1005.38
2017-11-11T02:15:37.244Z,1005.38
2017-11-11T02:16:17.622Z,1005.35
2017-11-11T02:16:57.994Z,1005.34
2017-11-11T02:17:38.389Z,1005.34
2017-11-11T02:18:18.761Z,1005.26
2017-11-11T02:18:59.181Z,1005.27
2017-11-11T02:19:39.537Z,1005.3
2017-11-11T02:20:19.996Z,1005.24
2017-11-11T02:21:00.426Z,1005.34
2017-11-11T02:21:40.809Z,1005.32
2017-11-11T02:22:21.223Z,1005.34
2017-11-11T02:23:01.663Z,1005.3
2017-11-11T02:23:42.049Z,1005.3
2017-11-11T02:24:22.501Z,1005.26
2017-11-11T02:25:02.976Z,1005.27
2017-11-11T02:25:43.300Z,1005.25
2017-11-11T02:26:23.730Z,1005.26
2017-11-11T02:27:04.225Z,1005.32
2017-11-11T02:27:44.537Z,1005.26
2017-11-11T02:28:24.978Z,1005.31
2017-11-11T02:29:05.465Z,1005.29
2017-11-11T02:29:45.985Z,1005.26
2017-11-11T02:30:26.388Z,1005.26
2017-11-11T02:31:06.889Z,1005.28
2017-11-11T02:31:47.306Z,1005.27
2017-11-11T02:32:27.687Z,1005.25
2017-11-11T02:33:08.120Z,1005.26
2017-11-11T02:33:48.642Z,1005.26
2017-11-11T02:34:28.948Z,1005.26
2017-11-11T02:35:09.368Z,1005.28
2017-11-11T02:35:49.863Z,1005.24
2017-11-11T02:36:30.156Z,1005.24
2017-11-11T02:37:10.586Z,1005.24
2017-11-11T02:37:50.964Z,1005.24
2017-11-11T02:38:31.397Z,1005.26
2017-11-11T02:39:11.807Z,1005.23
2017-11-11T02:39:52.226Z,1005.26
2017-11-11T02:40:32.652Z,1005.26
2017-11-11T02:41:13.050Z,1005.23
2017-11-11T02:41:53.485Z,1005.24
2017-11-11T02:42:33.893Z,1005.2
2017-11-11T02:43:14.312Z,1005.21
2017-11-11T02:43:54.667Z,1005.23
2017-11-11T02:44:35.107Z,1005.15
2017-11-11T02:45:15.471Z,1005.16
2017-11-11T02:45:56.001Z,1005.07
2017-11-11T02:46:36.385Z,1005.1
2017-11-11T02:47:16.782Z,1005.1
2017-11-11T02:47:57.214Z,1005.09
2017-11-11T02:48:37.682Z,1005.1
2017-11-11T02:49:18.048Z,1005.11
2017-11-11T02:49:58.539Z,1005.11
2017-11-11T02:50:38.925Z,1005.11
2017-11-11T02:51:19.361Z,1004.99
2017-11-11T02:51:59.887Z,1005.03
2017-11-11T02:52:40.304Z,1004.99
2017-11-11T02:53:20.721Z,1005.03
2017-11-11T02:54:01.158Z,1005
2017-11-11T02:54:41.595Z,1005.03
2017-11-11T02:55:22.000Z,1005.06
2017-11-11T02:56:02.453Z,1005.03
2017-11-11T02:56:42.845Z,1005
2017-11-11T02:57:23.312Z,1004.96
2017-11-11T02:58:03.802Z,1005.01
2017-11-11T02:58:44.195Z,1004.95
2017-11-11T02:59:24.633Z,1004.97
2017-11-11T03:00:05.031Z,1004.92
2017-11-11T03:00:45.538Z,1004.94
2017-11-11T03:01:25.867Z,1004.92
2017-11-11T03:02:06.435Z,1004.86
2017-11-11T03:02:46.770Z,1004.96
2017-11-11T03:03:27.205Z,1004.91
2017-11-11T03:04:07.604Z,1004.89
2017-11-11T03:04:48.038Z,1004.83
2017-11-11T03:05:28.421Z,1004.81
2017-11-11T03:06:08.831Z,1004.81
2017-11-11T03:06:49.267Z,1004.8
2017-11-11T03:07:29.662Z,1004.84
2017-11-11T03:08:10.187Z,1004.85
2017-11-11T03:08:50.638Z,1004.87
2017-11-11T03:09:31.049Z,1004.81
2017-11-11T03:10:11.436Z,1004.76
2017-11-11T03:10:51.870Z,1004.76
2017-11-11T03:11:32.260Z,1004.73
2017-11-11T03:12:12.829Z,1004.69
2017-11-11T03:12:53.096Z,1004.73
2017-11-11T03:13:33.492Z,1004.75
2017-11-11T03:14:13.938Z,1004.69
2017-11-11T03:14:54.565Z,1004.63
2017-11-11T03:15:35.200Z,1004.62
2017-11-11T03:16:15.551Z,1004.68
2017-11-11T03:16:55.959Z,1004.61
2017-11-11T03:17:36.384Z,1004.59
2017-11-11T03:18:16.787Z,1004.62
2017-11-11T03:18:57.289Z,1004.61
2017-11-11T03:19:37.673Z,1004.62
2017-11-11T03:20:18.064Z,1004.63
2017-11-11T03:20:58.475Z,1004.68
2017-11-11T03:21:38.856Z,1004.69
2017-11-11T03:22:19.296Z,1004.69
2017-11-11T03:22:59.762Z,1004.74
2017-11-11T03:23:40.139Z,1004.71
2017-11-11T03:24:20.748Z,1004.7
2017-11-11T03:25:00.967Z,1004.71
2017-11-11T03:25:41.325Z,1004.72
2017-11-11T03:26:21.832Z,1004.69
2017-11-11T03:27:02.130Z,1004.75
2017-11-11T03:27:42.564Z,1004.67
2017-11-11T03:28:23.066Z,1004.68
2017-11-11T03:29:03.601Z,1004.69
2017-11-11T03:29:44.006Z,1004.62
2017-11-11T03:30:24.357Z,1004.66
2017-11-11T03:31:04.777Z,1004.63
2017-11-11T03:31:45.193Z,1004.61
2017-11-11T03:32:25.842Z,1004.49
2017-11-11T03:33:06.273Z,1004.43
2017-11-11T03:33:46.715Z,1004.35
2017-11-11T03:34:27.140Z,1004.34
2017-11-11T03:35:07.567Z,1004.26
2017-11-11T03:35:48.004Z,1004.33
2017-11-11T03:36:28.440Z,1004.34
2017-11-11T03:37:08.968Z,1004.4
2017-11-11T03:37:49.423Z,1004.3
2017-11-11T03:38:29.781Z,1004.28
2017-11-11T03:39:10.662Z,1004.21
2017-11-11T03:39:50.802Z,1004.27
2017-11-11T03:40:31.263Z,1004.23
2017-11-11T03:41:11.648Z,1004.25
2017-11-11T03:41:52.163Z,1004.2
2017-11-11T03:42:32.747Z,1004.24
2017-11-11T03:43:13.012Z,1004.23
2017-11-11T03:43:53.429Z,1004.25
2017-11-11T03:44:33.997Z,1004.25
2017-11-11T03:45:14.597Z,1004.28
2017-11-11T03:45:54.958Z,1004.26
2017-11-11T03:46:35.397Z,1004.3
2017-11-11T03:47:15.790Z,1004.34
2017-11-11T03:47:56.292Z,1004.26
2017-11-11T03:48:36.747Z,1004.25
2017-11-11T03:49:17.211Z,1004.26
2017-11-11T03:49:57.747Z,1004.21
2017-11-11T03:50:38.137Z,1004.22
2017-11-11T03:51:18.605Z,1004.22
2017-11-11T03:51:59.064Z,1004.16
2017-11-11T03:52:39.632Z,1004.14
2017-11-11T03:53:20.098Z,1004.17
2017-11-11T03:54:00.452Z,1004.17
2017-11-11T03:54:40.946Z,1004.18
2017-11-11T03:55:21.380Z,1004.21
2017-11-11T03:56:01.797Z,1004.09
2017-11-11T03:56:42.237Z,1004.21
2017-11-11T03:57:22.590Z,1004.14
2017-11-11T03:58:03.084Z,1004.17
2017-11-11T03:58:43.519Z,1004.18
2017-11-11T03:59:23.916Z,1004.08
2017-11-11T04:00:04.308Z,1004.15
2017-11-11T04:00:44.798Z,1004.13
2017-11-11T04:01:25.189Z,1004.13
2017-11-11T04:02:05.870Z,1004.11
2017-11-11T04:02:46.309Z,1004.16
2017-11-11T04:47:06.470Z,1003.71
2017-11-11T04:47:47.200Z,1003.69
2017-11-11T04:48:27.601Z,1003.72
2017-11-11T04:49:08.068Z,1003.72
2017-11-11T04:49:48.516Z,1003.68
2017-11-11T04:50:28.925Z,1003.66
2017-11-11T04:51:09.741Z,1003.67
2017-11-11T04:51:50.295Z,1003.74
2017-11-11T04:52:30.684Z,1003.73
2017-11-11T04:53:11.276Z,1003.75
2017-11-11T04:53:51.528Z,1003.74
2017-11-11T04:54:32.019Z,1003.73
2017-11-11T04:55:12.441Z,1003.75
2017-11-11T04:55:52.861Z,1003.76
2017-11-11T04:56:33.378Z,1003.7
2017-11-11T04:57:13.877Z,1003.71
2017-11-11T04:57:54.238Z,1003.63
2017-11-11T04:58:34.629Z,1003.68
2017-11-11T04:59:15.175Z,1003.67
2017-11-11T04:59:55.465Z,1003.73
2017-11-11T05:00:35.927Z,1003.73
2017-11-11T05:01:16.242Z,1003.69
2017-11-11T05:01:56.653Z,1003.72
2017-11-11T05:02:37.128Z,1003.78
2017-11-11T05:03:17.534Z,1003.76
2017-11-11T05:03:58.042Z,1003.67
2017-11-11T05:04:38.310Z,1003.64
2017-11-11T05:05:18.737Z,1003.68
2017-11-11T05:05:59.699Z,1003.67
2017-11-11T05:06:39.946Z,1003.62
2017-11-11T05:07:20.338Z,1003.67
2017-11-11T05:08:00.740Z,1003.6
2017-11-11T05:08:41.307Z,1003.58
2017-11-11T05:09:21.870Z,1003.57
2017-11-11T05:10:02.394Z,1003.61
2017-11-11T05:10:42.764Z,1003.57
2017-11-11T05:11:23.227Z,1003.52
2017-11-11T05:12:03.580Z,1003.57
2017-11-11T05:12:43.984Z,1003.55
2017-11-11T05:13:24.536Z,1003.5
2017-11-11T05:14:05.069Z,1003.53
2017-11-11T05:14:45.468Z,1003.46
2017-11-11T05:15:25.928Z,1003.5
2017-11-11T05:16:06.345Z,1003.48
2017-11-11T05:16:46.789Z,1003.47
2017-11-11T05:17:27.219Z,1003.47
2017-11-11T05:18:07.541Z,1003.47
2017-11-11T05:18:48.191Z,1003.41
2017-11-11T05:19:28.451Z,1003.47
2017-11-11T05:20:08.923Z,1003.51
2017-11-11T05:20:49.353Z,1003.46
2017-11-11T05:21:29.725Z,1003.46
2017-11-11T05:22:10.467Z,1003.41
2017-11-11T05:22:50.605Z,1003.4
2017-11-11T05:23:30.945Z,1003.46
2017-11-11T05:24:11.383Z,1003.39
2017-11-11T05:24:51.850Z,1003.37
2017-11-11T05:25:32.222Z,1003.34
2017-11-11T05:26:12.639Z,1003.35
2017-11-11T05:26:53.081Z,1003.31
2017-11-11T05:27:33.484Z,1003.28
2017-11-11T05:28:13.961Z,1003.3
2017-11-11T05:28:54.504Z,1003.3
2017-11-11T05:29:34.912Z,1003.27
2017-11-11T05:30:15.321Z,1003.32
2017-11-11T05:30:55.809Z,1003.27
2017-11-11T05:31:36.450Z,1003.23
2017-11-11T05:32:16.823Z,1003.32
2017-11-11T05:32:59.236Z,1003.22
2017-11-11T05:33:39.721Z,1003.21
2017-11-11T05:34:20.096Z,1003.2
2017-11-11T05:35:00.560Z,1003.24
2017-11-11T05:35:40.877Z,1003.23
2017-11-11T05:36:21.237Z,1003.19
2017-11-11T05:37:01.604Z,1003.2
2017-11-11T05:37:42.087Z,1003.22
2017-11-11T05:38:22.453Z,1003.27
2017-11-11T05:39:02.815Z,1003.2
2017-11-11T05:39:43.778Z,1003.21
2017-11-11T05:40:24.113Z,1003.15
2017-11-11T05:41:04.571Z,1003.21
2017-11-11T05:41:45.006Z,1003.13
2017-11-11T05:42:25.373Z,1003.17
2017-11-11T05:43:05.736Z,1003.19
2017-11-11T05:43:46.156Z,1003.14
2017-11-11T05:44:26.690Z,1003.13
2017-11-11T05:45:06.961Z,1003.14
2017-11-11T05:45:47.398Z,1003.11
2017-11-11T05:46:27.862Z,1003.12
2017-11-11T05:47:08.206Z,1003.14
2017-11-11T05:47:48.675Z,1003.08
2017-11-11T05:48:29.045Z,1003.09
2017-11-11T05:49:09.439Z,1003.03
2017-11-11T05:49:49.898Z,1003.05
2017-11-11T05:50:30.548Z,1003.07
2017-11-11T05:51:11.050Z,1003.04
2017-11-11T05:51:52.252Z,1003.02
2017-11-11T05:52:31.790Z,1003.01
2017-11-11T05:53:12.206Z,1003.01
2017-11-11T05:53:52.641Z,1003.01
2017-11-11T05:54:33.006Z,1002.98
2017-11-11T05:55:13.380Z,1003.01
2017-11-11T05:55:53.793Z,1003.01
2017-11-11T05:58:23.204Z,1002.92
2017-11-11T05:59:03.677Z,1002.87
2017-11-11T05:59:44.103Z,1002.87
2017-11-11T06:00:26.217Z,1002.86
2017-11-11T06:01:06.573Z,1002.87
2017-11-11T06:01:47.028Z,1002.89
2017-11-11T06:02:27.392Z,1002.89
2017-11-11T06:03:07.812Z,1002.84
2017-11-11T06:03:48.147Z,1002.88
2017-11-11T06:04:28.645Z,1002.87
2017-11-11T06:05:09.026Z,1002.91
2017-11-11T06:05:49.413Z,1002.9
2017-11-11T06:06:29.837Z,1002.89
2017-11-11T06:07:10.277Z,1002.94
2017-11-11T06:07:50.691Z,1002.91
2017-11-11T06:08:31.087Z,1002.9
2017-11-11T06:09:11.563Z,1002.9
2017-11-11T06:09:52.048Z,1002.87
2017-11-11T06:10:32.453Z,1002.86
2017-11-11T06:11:12.868Z,1002.83
2017-11-11T06:11:53.204Z,1002.85
2017-11-11T06:12:33.713Z,1002.83
2017-11-11T06:13:14.122Z,1002.86
2017-11-11T06:13:54.538Z,1002.87
2017-11-11T06:14:34.898Z,1002.88
2017-11-11T06:15:15.278Z,1002.87
2017-11-11T06:15:55.676Z,1002.86
2017-11-11T06:16:36.130Z,1002.87
2017-11-11T06:17:16.495Z,1002.85
2017-11-11T06:17:56.936Z,1002.9
2017-11-11T06:18:37.460Z,1002.87
2017-11-11T06:19:17.942Z,1002.87
2017-11-11T06:19:58.285Z,1002.88
2017-11-11T06:20:38.682Z,1002.89
2017-11-11T06:21:19.333Z,1002.85
2017-11-11T06:21:59.798Z,1002.82
2017-11-11T06:22:40.153Z,1002.81
2017-11-11T06:23:20.704Z,1002.8
2017-11-11T06:24:00.976Z,1002.77
2017-11-11T06:24:41.439Z,1002.75
2017-11-11T06:25:21.841Z,1002.75
2017-11-11T06:26:02.238Z,1002.78
2017-11-11T06:26:42.630Z,1002.78
2017-11-11T06:27:23.064Z,1002.71
2017-11-11T06:28:03.478Z,1002.73
2017-11-11T06:28:43.890Z,1002.75
2017-11-11T06:29:24.352Z,1002.74
2017-11-11T06:31:54.042Z,1002.71
2017-11-11T06:32:35.630Z,1002.71
2017-11-11T06:33:16.077Z,1002.7
2017-11-11T06:33:56.492Z,1002.71
2017-11-11T06:34:36.865Z,1002.68
2017-11-11T06:35:17.260Z,1002.7
2017-11-11T06:35:57.684Z,1002.7
2017-11-11T06:36:38.156Z,1002.67
2017-11-11T06:37:18.563Z,1002.7
2017-11-11T06:37:58.951Z,1002.66
2017-11-11T06:38:39.444Z,1002.59
2017-11-11T06:39:19.786Z,1002.54
2017-11-11T06:40:00.255Z,1002.57
2017-11-11T06:40:40.667Z,1002.49
2017-11-11T06:41:21.092Z,1002.52
2017-11-11T06:42:01.427Z,1002.52
2017-11-11T06:42:41.879Z,1002.57
2017-11-11T06:43:22.354Z,1002.53
2017-11-11T06:44:02.849Z,1002.54
2017-11-11T06:44:43.278Z,1002.56
2017-11-11T06:45:23.743Z,1002.57
2017-11-11T06:46:04.169Z,1002.58
2017-11-11T06:46:44.608Z,1002.51
2017-11-11T06:47:24.960Z,1002.56
2017-11-11T06:48:05.406Z,1002.55
2017-11-11T06:48:45.868Z,1002.58
2017-11-11T06:49:26.303Z,1002.53
2017-11-11T06:50:06.688Z,1002.58
2017-11-11T06:50:47.219Z,1002.47
2017-11-11T06:51:27.659Z,1002.5
2017-11-11T06:52:08.141Z,1002.48
2017-11-11T06:52:48.498Z,1002.47
2017-11-11T06:53:28.945Z,1002.43
2017-11-11T06:54:09.372Z,1002.44
2017-11-11T06:54:49.831Z,1002.46
2017-11-11T06:55:30.213Z,1002.42
2017-11-11T06:56:10.711Z,1002.39
2017-11-11T06:56:51.170Z,1002.41
2017-11-11T06:57:31.602Z,1002.4
2017-11-11T06:58:11.917Z,1002.38
2017-11-11T06:58:52.403Z,1002.35
2017-11-11T06:59:32.798Z,1002.31
2017-11-11T07:00:13.302Z,1002.29
2017-11-11T07:00:53.708Z,1002.24
2017-11-11T07:01:34.124Z,1002.22
2017-11-11T07:02:14.734Z,1002.19
2017-11-11T07:02:55.123Z,1002.24
2017-11-11T07:03:35.597Z,1002.17
2017-11-11T07:04:16.065Z,1002.23
2017-11-11T07:04:56.468Z,1002.18
2017-11-11T07:05:37.113Z,1002.21
2017-11-11T07:06:17.540Z,1002.13
2017-11-11T07:06:57.907Z,1002.13
2017-11-11T07:07:38.621Z,1002.12
2017-11-11T07:08:18.966Z,1002.23
2017-11-11T07:08:59.470Z,1002.2
2017-11-11T07:09:40.202Z,1002.18
2017-11-11T07:10:20.313Z,1002.26
2017-11-11T07:11:00.719Z,1002.31
2017-11-11T07:11:41.107Z,1002.24
2017-11-11T07:12:21.565Z,1002.31
2017-11-11T07:13:01.912Z,1002.29
2017-11-11T07:13:42.608Z,1002.36
2017-11-11T07:14:23.040Z,1002.31
2017-11-11T07:15:03.392Z,1002.11
2017-11-11T07:15:43.893Z,1002.31
2017-11-11T07:16:24.449Z,1002.28
2017-11-11T07:17:04.862Z,1002.24
2017-11-11T07:17:45.497Z,1002.18
2017-11-11T07:18:25.871Z,1002.18
2017-11-11T07:19:06.383Z,1002.05
2017-11-11T07:19:46.745Z,1002.16
2017-11-11T07:20:27.306Z,1002.19
2017-11-11T07:21:07.911Z,1002.18
2017-11-11T07:21:48.458Z,1002.17
2017-11-11T07:22:28.893Z,1002.13
2017-11-11T07:23:09.589Z,1002.22
2017-11-11T07:23:50.201Z,1002.15
2017-11-11T07:24:30.653Z,1002.16
2017-11-11T07:25:11.141Z,1002.21
2017-11-11T07:25:52.566Z,1002.27
2017-11-11T07:26:33.100Z,1002.23
2017-11-11T07:27:13.520Z,1002.25
2017-11-11T07:27:54.203Z,1002.23
2017-11-11T07:28:34.802Z,1002.35
2017-11-11T07:29:15.268Z,1002.15
2017-11-11T07:29:55.872Z,1002.06
2017-11-11T07:30:36.314Z,1002.27
2017-11-11T07:31:16.741Z,1002.26
2017-11-11T07:31:59.961Z,1002.17
2017-11-11T07:32:40.396Z,1002.06
2017-11-11T07:33:20.920Z,1002.13
2017-11-11T07:34:01.344Z,1002.17
2017-11-11T07:34:41.888Z,1002.24
2017-11-11T07:35:22.234Z,1002.24
2017-11-11T07:36:02.712Z,1002.12
2017-11-11T07:36:43.262Z,1002.12
2017-11-11T07:37:23.639Z,1002.09
2017-11-11T07:38:04.554Z,1002.11
2017-11-11T07:38:44.909Z,1002.15
2017-11-11T07:39:25.725Z,1002.1
2017-11-11T07:40:05.910Z,1002.15
2017-11-11T07:40:46.421Z,1002.11
2017-11-11T07:41:26.896Z,1002.11
2017-11-11T07:42:07.311Z,1002.04
2017-11-11T07:42:47.752Z,1002.01
2017-11-11T07:43:28.202Z,1001.91
2017-11-11T07:44:08.589Z,1002.06
2017-11-11T07:44:49.240Z,1002.1
2017-11-11T07:45:29.766Z,1002.08
2017-11-11T07:46:10.237Z,1002.08
2017-11-11T07:46:50.788Z,1002.12
2017-11-11T07:47:31.286Z,1002.02
2017-11-11T07:48:11.665Z,1002.12
2017-11-11T07:48:52.217Z,1002.1
2017-11-11T07:49:32.966Z,1002.09
2017-11-11T07:50:13.730Z,1002.09
2017-11-11T07:50:54.288Z,1002.07
2017-11-11T07:51:34.709Z,1002.07
2017-11-11T07:52:15.209Z,1002.07
2017-11-11T07:52:55.596Z,1002.06
2017-11-11T07:53:36.095Z,1001.95
2017-11-11T07:54:16.499Z,1002.01
2017-11-11T07:54:57.118Z,1001.99
2017-11-11T07:55:37.658Z,1001.94
2017-11-11T07:56:18.492Z,1001.98
2017-11-11T07:56:58.773Z,1001.97
2017-11-11T07:57:39.687Z,1001.92
2017-11-11T07:58:19.921Z,1002
2017-11-11T07:59:00.506Z,1001.96
2017-11-11T07:59:40.976Z,1001.93
2017-11-11T08:00:21.436Z,1001.93
2017-11-11T08:01:02.015Z,1001.98
2017-11-11T08:01:42.510Z,1002
2017-11-11T08:02:22.921Z,1002.02
2017-11-11T08:03:03.584Z,1001.99
2017-11-11T08:03:44.029Z,1001.95
2017-11-11T08:04:24.403Z,1001.99
2017-11-11T08:05:04.813Z,1002
2017-11-11T08:05:45.371Z,1001.96
2017-11-11T08:06:25.819Z,1002.02
2017-11-11T08:07:06.709Z,1002.07
2017-11-11T08:07:47.125Z,1001.97
2017-11-11T08:08:27.478Z,1002.04
2017-11-11T08:09:07.906Z,1002.03
2017-11-11T08:09:48.473Z,1002.02
2017-11-11T08:10:29.118Z,1002.05
2017-11-11T08:11:09.451Z,1001.97
2017-11-11T08:11:49.969Z,1002.01
2017-11-11T08:12:30.331Z,1002.06
2017-11-11T08:13:10.742Z,1002.02
2017-11-11T08:13:51.084Z,1001.99
2017-11-11T08:14:31.455Z,1002.01
2017-11-11T08:15:11.898Z,1002
2017-11-11T08:15:52.411Z,1001.98
2017-11-11T08:16:32.773Z,1001.96
2017-11-11T08:17:13.407Z,1001.87
2017-11-11T08:17:53.693Z,1001.85
2017-11-11T08:18:34.088Z,1001.84
2017-11-11T08:19:14.515Z,1001.8
2017-11-11T08:19:54.967Z,1001.84
2017-11-11T08:20:35.370Z,1001.85
2017-11-11T08:21:15.791Z,1001.87
2017-11-11T08:21:56.225Z,1001.9
2017-11-11T08:22:36.590Z,1001.88
2017-11-11T08:23:17.021Z,1001.86
2017-11-11T08:23:57.486Z,1001.86
2017-11-11T08:24:38.236Z,1001.84
2017-11-11T08:25:18.672Z,1001.82
2017-11-11T08:25:59.110Z,1001.79
2017-11-11T08:26:39.598Z,1001.77
2017-11-11T08:27:20.123Z,1001.79
2017-11-11T08:28:00.588Z,1001.72
2017-11-11T08:28:41.595Z,1001.77
2017-11-11T08:29:21.936Z,1001.78
2017-11-11T08:30:02.490Z,1001.77
2017-11-11T08:30:42.887Z,1001.74
2017-11-11T08:31:23.344Z,1001.75
2017-11-11T08:32:03.687Z,1001.78
2017-11-11T08:32:44.111Z,1001.79
2017-11-11T08:33:24.612Z,1001.79
2017-11-11T08:34:04.996Z,1001.78
2017-11-11T08:34:45.414Z,1001.77
2017-11-11T08:35:25.817Z,1001.74
2017-11-11T08:36:06.240Z,1001.75
2017-11-11T08:36:46.690Z,1001.76
2017-11-11T08:37:27.090Z,1001.77
2017-11-11T08:38:07.527Z,1001.77
2017-11-11T08:38:47.942Z,1001.76
2017-11-11T08:39:28.343Z,1001.75
2017-11-11T08:40:08.738Z,1001.72
2017-11-11T08:40:49.114Z,1001.73
2017-11-11T08:41:29.546Z,1001.7
2017-11-11T08:42:09.972Z,1001.74
2017-11-11T08:42:50.356Z,1001.71
2017-11-11T08:43:30.845Z,1001.65
2017-11-11T08:44:11.259Z,1001.65
2017-11-11T08:44:51.676Z,1001.63
2017-11-11T08:45:32.154Z,1001.61
2017-11-11T08:46:12.567Z,1001.58
2017-11-11T08:46:53.022Z,1001.58
2017-11-11T08:47:33.395Z,1001.52
2017-11-11T08:48:13.795Z,1001.5
2017-11-11T08:48:54.262Z,1001.49
2017-11-11T08:49:34.622Z,1001.48
2017-11-11T08:50:15.068Z,1001.41
2017-11-11T08:50:55.445Z,1001.44
2017-11-11T08:51:35.859Z,1001.43
2017-11-11T08:52:16.326Z,1001.39
2017-11-11T08:52:56.743Z,1001.4
2017-11-11T08:53:37.190Z,1001.39
2017-11-11T08:54:17.581Z,1001.36
2017-11-11T08:54:57.987Z,1001.37
2017-11-11T08:55:38.442Z,1001.36
2017-11-11T08:56:18.811Z,1001.35
2017-11-11T08:56:59.250Z,1001.36
2017-11-11T08:57:39.713Z,1001.35
2017-11-11T08:58:20.127Z,1001.36
2017-11-11T08:59:00.499Z,1001.34
2017-11-11T08:59:40.933Z,1001.33
2017-11-11T09:00:21.367Z,1001.34
2017-11-11T09:01:01.803Z,1001.3
2017-11-11T09:01:42.180Z,1001.32
2017-11-11T09:02:22.642Z,1001.29
2017-11-11T09:03:03.089Z,1001.31
2017-11-11T09:03:43.461Z,1001.25
2017-11-11T09:04:23.869Z,1001.26
2017-11-11T09:05:04.298Z,1001.28